Airfield :
LOGIN :

Register | Disclaimer

   EN    FR    IT 

 










Legend :    VFR   Marginal VFR   IFR   Intensive IFR   Very Intensive IFR
Visi :
Ceiling :
>= 8 km
>= 3000ft
5 to 8 km
1000 to 3000 ft
1500m to 5 km
500 to 1000 ft
800 to 1500m
200 to 500 ft
< 800m
< 200 ft
Symbols :   Thunderstorms  Fog  Heavy snow  Heavy precipitations  Wind > 20 kt
SIGMETs :     Misc.  Thunderstorms  Icing  Turbulence  Mountain Waves  Volcanic Ashes







- Airport Elevation : 49 ft
- IATA code : SEN
- Download approach charts


EGMC - Southend

CURRENT METAR :
  • 240720Z 23010KT 9999 BKN011 15/13 Q1017

EXPIRED METARs :
  • 240650Z 23010KT 9999 OVC011 15/13 Q1017
  • 240620Z 22007KT 9999 OVC011 15/13 Q1017
  • 240550Z 21006KT 9999 SCT007 OVC009 14/12 Q1017
  • 240520Z 22010KT 9999 OVC006 14/12 Q1017
  • 240450Z 21010KT 9999 OVC006 14/12 Q1017

TAF TAF EGMC
Valid from the 24 at 06:00 until the 24 at 15:00 UTC


240500Z 2406/2415 22010KT 9999 BKN010
TEMPO 2406/2410 7000 -DZ BKN005
PROB30
TEMPO 2407/2409 4000 RADZ BKN004
PROB30
TEMPO 2410/2412 SCT010
TEMPO 2411/2415 23015G25KT
TEMPO 2412/2415 SCT020
No reported NOTAMs for that airfield.



MET'MAP, your aeronautical weather chart ! - Copyright ORBIFLY December 2007 - Disclaimer

ORBIFLY MET'MAP TEAM :

Programming & Development : Alexandra Zaïnal
Concept & Development : Baudouin d'Aumeries
Co-Development & Prog : Marc-Olivier Méhu
Technical & hardware support : Manuel Goepfert

Contact : metmap@orbifly.com




SOURCES & CREDITS :

   NOAA